createdAt,value
2023-01-21T00:01:09.190Z,0.90
2023-01-21T00:03:36.132Z,0.80
2023-01-21T00:06:03.518Z,0.90
2023-01-21T00:08:30.422Z,0.90
2023-01-21T00:10:57.231Z,0.90
2023-01-21T00:13:26.137Z,0.80
2023-01-21T00:15:54.782Z,0.80
2023-01-21T00:18:21.582Z,0.80
2023-01-21T00:20:48.469Z,0.80
2023-01-21T00:23:17.666Z,0.80
2023-01-21T00:25:44.591Z,0.80
2023-01-21T00:28:13.755Z,0.80
2023-01-21T00:30:41.576Z,0.80
2023-01-21T00:33:08.380Z,0.80
2023-01-21T00:35:36.217Z,0.80
2023-01-21T00:38:02.847Z,0.70
2023-01-21T00:40:29.749Z,0.70
2023-01-21T00:42:56.613Z,0.70
2023-01-21T00:45:23.414Z,0.80
2023-01-21T00:47:50.082Z,0.70
2023-01-21T00:50:17.266Z,0.70
2023-01-21T00:52:44.019Z,0.70
2023-01-21T00:55:10.783Z,0.70
2023-01-21T00:57:37.843Z,0.70
2023-01-21T01:00:05.556Z,0.70
2023-01-21T01:02:32.355Z,0.70
2023-01-21T01:04:59.186Z,0.70
2023-01-21T01:07:25.963Z,0.70
2023-01-21T01:09:52.626Z,0.60
2023-01-21T01:12:19.361Z,0.60
2023-01-21T01:14:47.173Z,0.60
2023-01-21T01:17:13.900Z,0.90
2023-01-21T01:19:40.671Z,0.60
2023-01-21T01:22:07.415Z,0.80
2023-01-21T01:24:34.121Z,0.60
2023-01-21T01:27:00.904Z,0.70
2023-01-21T01:29:28.428Z,0.60
2023-01-21T01:31:55.197Z,0.60
2023-01-21T01:34:22.028Z,0.60
2023-01-21T01:36:49.334Z,0.60
2023-01-21T01:39:16.172Z,0.60
2023-01-21T01:41:42.940Z,0.60
2023-01-21T01:44:56.035Z,0.60
2023-01-21T01:47:29.987Z,0.60
2023-01-21T01:49:57.745Z,0.60
2023-01-21T01:52:24.898Z,0.50
2023-01-21T01:54:55.044Z,0.50
2023-01-21T01:57:25.341Z,0.40
2023-01-21T01:59:52.130Z,0.40
2023-01-21T02:02:21.963Z,0.30
2023-01-21T02:04:54.639Z,0.40
2023-01-21T02:07:23.752Z,0.50
2023-01-21T02:09:52.815Z,0.50
2023-01-21T02:12:20.046Z,0.40
2023-01-21T02:14:47.817Z,0.40
2023-01-21T02:17:36.257Z,0.40
2023-01-21T02:20:28.833Z,0.40
2023-01-21T02:23:19.993Z,0.40
2023-01-21T02:26:25.210Z,0.40
2023-01-21T02:29:22.488Z,0.40
2023-01-21T02:32:15.463Z,0.40
2023-01-21T02:34:59.898Z,0.30
2023-01-21T02:38:06.837Z,0.40
2023-01-21T02:40:48.904Z,0.40
2023-01-21T02:44:00.440Z,0.30
2023-01-21T02:46:52.393Z,0.30
2023-01-21T02:49:27.199Z,0.30
2023-01-21T02:51:56.103Z,0.20
2023-01-21T02:54:41.901Z,0.20
2023-01-21T02:57:19.667Z,0.10
2023-01-21T02:59:51.299Z,0.10
2023-01-21T03:02:43.900Z,0.10
2023-01-21T03:05:34.497Z,0.10
2023-01-21T03:08:21.819Z,0.20
2023-01-21T03:11:03.363Z,0.20
2023-01-21T03:14:20.974Z,0.20
2023-01-21T03:16:59.392Z,0.10
2023-01-21T03:19:33.188Z,0.20
2023-01-21T03:22:04.422Z,0.20
2023-01-21T03:24:36.756Z,0.10
2023-01-21T03:27:09.073Z,0.20
2023-01-21T03:29:43.614Z,0.10
2023-01-21T03:32:14.786Z,0.20
2023-01-21T03:34:45.499Z,0.10
2023-01-21T03:37:22.769Z,0.10
2023-01-21T03:40:18.417Z,0.20
2023-01-21T03:42:47.597Z,0.10
2023-01-21T03:45:14.713Z,0.10
2023-01-21T03:47:46.234Z,0.10
2023-01-21T03:50:27.474Z,0.10
2023-01-21T03:52:55.036Z,0.10
2023-01-21T03:55:21.917Z,0.10
2023-01-21T03:57:49.053Z,0.10
2023-01-21T04:00:16.850Z,0.10
2023-01-21T04:02:44.062Z,0.00
2023-01-21T04:05:10.763Z,0.00
2023-01-21T04:07:37.566Z,0.00
2023-01-21T04:10:04.607Z,-0.10
2023-01-21T04:12:31.418Z,0.00
2023-01-21T04:14:58.209Z,0.00
2023-01-21T04:17:25.016Z,0.00
2023-01-21T04:19:52.131Z,0.00
2023-01-21T04:22:19.371Z,0.00
2023-01-21T04:24:46.223Z,0.00
2023-01-21T04:27:13.033Z,0.00
2023-01-21T04:29:39.750Z,0.00
2023-01-21T04:32:06.519Z,0.00
2023-01-21T04:34:33.234Z,-0.10
2023-01-21T04:37:00.004Z,-0.10
2023-01-21T04:39:26.703Z,-0.10
2023-01-21T04:41:54.825Z,-0.10
2023-01-21T04:44:21.638Z,-0.20
2023-01-21T04:46:48.628Z,-0.20
2023-01-21T04:49:15.359Z,-0.10
2023-01-21T04:51:44.294Z,-0.10
2023-01-21T04:54:11.424Z,-0.20
2023-01-21T04:56:38.382Z,-0.10
2023-01-21T04:59:05.194Z,-0.20
2023-01-21T05:01:31.980Z,-0.20
2023-01-21T05:03:58.767Z,-0.20
2023-01-21T05:06:25.499Z,-0.20
2023-01-21T05:08:52.470Z,-0.20
2023-01-21T05:11:20.001Z,-0.20
2023-01-21T05:13:46.853Z,-0.20
2023-01-21T05:16:14.712Z,-0.20
2023-01-21T05:18:41.883Z,-0.20
2023-01-21T05:21:08.961Z,-0.20
2023-01-21T05:23:36.778Z,-0.20
2023-01-21T05:26:04.585Z,-0.20
2023-01-21T05:28:31.414Z,-0.20
2023-01-21T05:31:02.627Z,-0.20
2023-01-21T05:33:33.024Z,-0.30
2023-01-21T05:36:00.717Z,-0.30
2023-01-21T05:38:28.383Z,-0.30
2023-01-21T05:40:59.926Z,-0.30
2023-01-21T05:43:31.565Z,-0.20
2023-01-21T05:45:58.891Z,-0.40
2023-01-21T05:48:25.750Z,-0.30
2023-01-21T05:50:52.623Z,-0.30
2023-01-21T05:53:19.651Z,-0.40
2023-01-21T05:55:46.495Z,-0.40
2023-01-21T05:58:14.300Z,-0.30
2023-01-21T06:00:41.995Z,-0.40
2023-01-21T06:03:10.831Z,-0.40
2023-01-21T06:06:02.139Z,-0.30
2023-01-21T06:08:30.212Z,-0.50
2023-01-21T06:10:56.983Z,-0.40
2023-01-21T06:13:24.305Z,-0.30
2023-01-21T06:15:54.858Z,-0.40
2023-01-21T06:18:22.616Z,-0.30
2023-01-21T06:20:49.530Z,-0.40
2023-01-21T06:23:16.569Z,-0.40
2023-01-21T06:25:43.536Z,-0.40
2023-01-21T06:28:16.704Z,-0.40
2023-01-21T06:30:43.435Z,-0.40
2023-01-21T06:33:10.236Z,-0.40
2023-01-21T06:35:37.139Z,-0.50
2023-01-21T06:38:03.937Z,-0.50
2023-01-21T06:40:30.867Z,-0.50
2023-01-21T06:42:57.770Z,-0.50
2023-01-21T06:45:24.507Z,-0.50
2023-01-21T06:47:51.341Z,-0.50
2023-01-21T06:50:18.563Z,-0.50
2023-01-21T06:52:47.533Z,-0.50
2023-01-21T06:55:15.126Z,-0.50
2023-01-21T06:57:43.097Z,-0.50
2023-01-21T07:00:10.960Z,-0.50
2023-01-21T07:02:37.916Z,-0.60
2023-01-21T07:05:05.441Z,-0.60
2023-01-21T07:07:32.441Z,-0.60
2023-01-21T07:10:01.319Z,-0.60
2023-01-21T07:12:28.104Z,-0.60
2023-01-21T07:14:54.901Z,-0.60
2023-01-21T07:17:23.020Z,-0.60
2023-01-21T07:19:49.872Z,-0.60
2023-01-21T07:22:16.726Z,-0.60
2023-01-21T07:24:43.531Z,-0.60
2023-01-21T07:27:10.703Z,-0.60
2023-01-21T07:29:37.531Z,-0.60
2023-01-21T07:32:04.706Z,-0.60
2023-01-21T07:34:31.542Z,-0.70
2023-01-21T07:36:58.376Z,-0.60
2023-01-21T07:39:25.295Z,-0.60
2023-01-21T07:41:52.214Z,-0.60
2023-01-21T07:44:21.335Z,-0.60
2023-01-21T07:46:48.111Z,-0.60
2023-01-21T07:49:17.234Z,-0.60
2023-01-21T07:51:45.953Z,-0.60
2023-01-21T07:54:13.245Z,-0.50
2023-01-21T07:56:40.424Z,-0.50
2023-01-21T07:59:07.361Z,-0.50
2023-01-21T08:01:34.168Z,-0.50
2023-01-21T08:04:01.014Z,-0.50
2023-01-21T08:06:27.784Z,-0.40
2023-01-21T08:08:54.535Z,-0.40
2023-01-21T08:11:21.299Z,-0.50
2023-01-21T08:13:49.729Z,-0.50
2023-01-21T08:16:20.367Z,-0.40
2023-01-21T08:18:47.419Z,-0.40
2023-01-21T08:21:14.151Z,-0.40
2023-01-21T08:23:41.013Z,-0.40
2023-01-21T08:26:08.140Z,-0.40
2023-01-21T08:28:35.192Z,-0.40
2023-01-21T08:31:11.489Z,-0.30
2023-01-21T08:33:39.191Z,-0.30
2023-01-21T08:36:11.325Z,-0.30
2023-01-21T08:38:38.368Z,-0.20
2023-01-21T08:41:05.602Z,-0.20
2023-01-21T08:43:32.574Z,-0.20
2023-01-21T08:46:01.512Z,-0.10
2023-01-21T08:48:31.453Z,0.00
2023-01-21T08:51:01.727Z,-0.10
2023-01-21T08:53:28.726Z,-0.10
2023-01-21T08:56:00.487Z,-0.10
2023-01-21T08:58:28.362Z,-0.10
2023-01-21T09:00:55.945Z,0.00
2023-01-21T09:03:23.054Z,0.00
2023-01-21T09:05:52.941Z,0.00
2023-01-21T09:08:20.059Z,0.00
2023-01-21T09:11:03.153Z,0.10
2023-01-21T09:13:35.377Z,0.10
2023-01-21T09:16:04.459Z,0.20
2023-01-21T09:18:31.134Z,0.30
2023-01-21T09:21:06.149Z,0.40
2023-01-21T09:23:37.606Z,0.40
2023-01-21T09:26:06.416Z,0.50
2023-01-21T09:28:35.811Z,0.60
2023-01-21T09:31:11.152Z,0.60
2023-01-21T09:33:41.386Z,0.70
2023-01-21T09:36:12.567Z,0.70
2023-01-21T09:38:42.620Z,0.80
2023-01-21T09:41:23.905Z,0.90
2023-01-21T09:43:59.211Z,0.90
2023-01-21T09:46:41.201Z,1.00
2023-01-21T09:49:21.169Z,1.10
2023-01-21T09:51:52.407Z,1.20
2023-01-21T09:54:30.070Z,1.30
2023-01-21T09:57:15.402Z,1.40
2023-01-21T09:59:54.041Z,1.50
2023-01-21T10:02:28.648Z,1.60
2023-01-21T10:05:26.135Z,1.70
2023-01-21T10:08:18.000Z,1.80
2023-01-21T10:11:03.498Z,1.90
2023-01-21T10:13:49.370Z,2.00
2023-01-21T10:16:35.483Z,2.10
2023-01-21T10:19:05.171Z,2.20
2023-01-21T10:21:36.861Z,2.30
2023-01-21T10:24:16.958Z,2.40
2023-01-21T10:26:45.813Z,2.50
2023-01-21T10:29:17.768Z,2.60
2023-01-21T10:31:59.189Z,2.90
2023-01-21T10:34:30.461Z,3.30
2023-01-21T10:37:18.319Z,4.00
2023-01-21T10:40:12.296Z,4.30
2023-01-21T10:42:45.020Z,4.10
2023-01-21T10:45:33.893Z,3.80
2023-01-21T10:48:38.094Z,3.50
2023-01-21T10:51:23.149Z,3.40
2023-01-21T10:54:14.100Z,3.30
2023-01-21T10:56:47.101Z,3.30
2023-01-21T10:59:19.389Z,3.40
2023-01-21T11:01:50.217Z,3.70
2023-01-21T11:04:21.266Z,4.00
2023-01-21T11:07:09.645Z,4.60
2023-01-21T11:12:09.378Z,5.30
2023-01-21T11:14:36.120Z,5.30
2023-01-21T11:17:07.201Z,4.90
2023-01-21T11:19:34.028Z,4.40
2023-01-21T11:22:04.253Z,4.10
2023-01-21T11:24:41.409Z,3.90
2023-01-21T11:27:20.703Z,3.90
2023-01-21T11:29:49.313Z,3.80
2023-01-21T11:32:24.608Z,3.80
2023-01-21T11:35:20.611Z,3.80
2023-01-21T11:37:47.501Z,3.70
2023-01-21T11:40:28.679Z,3.70
2023-01-21T11:42:56.799Z,3.80
2023-01-21T11:45:38.363Z,3.80
2023-01-21T11:48:23.245Z,3.80
2023-01-21T11:50:50.096Z,3.80
2023-01-21T11:53:18.536Z,3.70
2023-01-21T11:55:50.149Z,3.60
2023-01-21T11:58:23.468Z,3.60
2023-01-21T12:00:53.608Z,3.50
2023-01-21T12:03:26.393Z,3.40
2023-01-21T12:05:53.915Z,3.40
2023-01-21T12:08:26.835Z,3.00
2023-01-21T12:11:01.910Z,2.80
2023-01-21T12:14:02.753Z,2.80
2023-01-21T12:16:40.159Z,2.80
2023-01-21T12:19:24.651Z,2.70
2023-01-21T12:21:57.223Z,2.70
2023-01-21T12:24:45.172Z,2.30
2023-01-21T12:27:30.917Z,2.20
2023-01-21T12:30:20.134Z,2.10
2023-01-21T12:32:56.559Z,2.20
2023-01-21T12:35:26.373Z,2.30
2023-01-21T12:38:07.571Z,2.00
2023-01-21T12:40:40.914Z,1.80
2023-01-21T12:43:17.463Z,1.80
2023-01-21T12:45:52.943Z,1.70
2023-01-21T12:48:27.056Z,1.70
2023-01-21T12:51:04.245Z,1.60
2023-01-21T12:54:01.270Z,1.60
2023-01-21T12:56:49.792Z,1.60
2023-01-21T12:59:31.583Z,1.60
2023-01-21T13:02:27.116Z,1.60
2023-01-21T13:05:33.156Z,1.70
2023-01-21T13:08:30.034Z,1.80
2023-01-21T13:11:41.551Z,1.70
2023-01-21T13:14:08.315Z,1.70
2023-01-21T13:16:56.102Z,1.80
2023-01-21T13:19:22.991Z,1.80
2023-01-21T13:22:06.370Z,1.80
2023-01-21T13:24:34.394Z,1.70
2023-01-21T13:27:21.502Z,1.70
2023-01-21T13:30:03.375Z,1.80
2023-01-21T13:33:04.968Z,1.90
2023-01-21T13:35:47.910Z,2.10
2023-01-21T13:38:41.967Z,2.20
2023-01-21T13:41:17.040Z,2.20
2023-01-21T13:43:59.943Z,2.30
2023-01-21T13:46:39.540Z,2.40
2023-01-21T13:49:34.892Z,2.50
2023-01-21T13:52:12.298Z,2.60
2023-01-21T13:54:54.466Z,2.50
2023-01-21T13:58:03.306Z,2.60
2023-01-21T14:00:43.298Z,2.60
2023-01-21T14:03:29.875Z,2.60
2023-01-21T14:06:10.783Z,2.60
2023-01-21T14:08:37.671Z,2.60
2023-01-21T14:11:25.321Z,2.70
2023-01-21T14:14:12.839Z,2.70
2023-01-21T14:17:18.863Z,2.80
2023-01-21T14:20:07.215Z,2.90
2023-01-21T14:22:48.416Z,3.10
2023-01-21T14:25:36.199Z,3.10
2023-01-21T14:28:23.928Z,3.00
2023-01-21T14:31:14.974Z,2.90
2023-01-21T14:33:53.691Z,3.00
2023-01-21T14:36:30.301Z,3.20
2023-01-21T14:39:24.056Z,3.30
2023-01-21T14:42:10.992Z,3.50
2023-01-21T14:44:45.302Z,3.80
2023-01-21T14:47:29.215Z,4.00
2023-01-21T14:49:58.021Z,4.20
2023-01-21T14:52:38.396Z,4.20
2023-01-21T14:55:26.986Z,4.30
2023-01-21T14:57:57.884Z,4.30
2023-01-21T15:00:47.762Z,4.20
2023-01-21T15:03:27.984Z,3.70
2023-01-21T15:06:02.168Z,3.30
2023-01-21T15:08:51.070Z,2.80
2023-01-21T15:11:21.977Z,2.50
2023-01-21T15:14:02.903Z,2.40
2023-01-21T15:16:34.305Z,2.30
2023-01-21T15:19:09.596Z,2.20
2023-01-21T15:21:42.680Z,2.20
2023-01-21T15:24:35.456Z,2.10
2023-01-21T15:27:25.625Z,2.00
2023-01-21T15:29:58.686Z,1.90
2023-01-21T15:32:33.017Z,1.90
2023-01-21T15:35:11.275Z,1.80
2023-01-21T15:37:39.741Z,1.80
2023-01-21T15:40:26.825Z,1.80
2023-01-21T15:43:02.903Z,1.80
2023-01-21T15:45:42.251Z,1.90
2023-01-21T15:48:45.078Z,2.00
2023-01-21T15:51:48.542Z,2.10
2023-01-21T15:54:34.075Z,2.10
2023-01-21T15:57:19.810Z,2.20
2023-01-21T15:59:52.403Z,2.20
2023-01-21T16:02:19.967Z,2.30
2023-01-21T16:05:08.315Z,2.20
2023-01-21T16:08:13.955Z,2.30
2023-01-21T16:10:58.594Z,2.30
2023-01-21T16:13:45.967Z,2.30
2023-01-21T16:16:43.610Z,2.20
2023-01-21T16:19:17.370Z,2.30
2023-01-21T16:21:48.659Z,2.20
2023-01-21T16:24:27.309Z,2.20
2023-01-21T16:26:54.537Z,2.30
2023-01-21T16:29:22.521Z,2.20
2023-01-21T16:31:50.797Z,2.10
2023-01-21T16:34:31.265Z,2.00
2023-01-21T16:37:04.712Z,1.90
2023-01-21T16:39:31.475Z,1.80
2023-01-21T16:42:04.455Z,1.70
2023-01-21T16:44:35.916Z,1.60
2023-01-21T16:47:03.175Z,1.60
2023-01-21T16:49:29.913Z,1.50
2023-01-21T16:51:59.654Z,1.50
2023-01-21T16:54:32.066Z,1.50
2023-01-21T16:57:02.740Z,1.50
2023-01-21T16:59:44.882Z,1.40
2023-01-21T17:02:33.439Z,1.40
2023-01-21T17:05:05.143Z,1.40
2023-01-21T17:07:44.764Z,1.30
2023-01-21T17:10:40.146Z,1.40
2023-01-21T17:13:16.830Z,1.40
2023-01-21T17:15:49.402Z,1.40
2023-01-21T17:18:29.873Z,1.40
2023-01-21T17:21:37.763Z,1.30
2023-01-21T17:24:18.374Z,1.30
2023-01-21T17:26:54.619Z,1.30
2023-01-21T17:29:28.189Z,1.40
2023-01-21T17:31:56.633Z,1.30
2023-01-21T17:34:26.187Z,1.30
2023-01-21T17:36:56.483Z,1.30
2023-01-21T17:39:48.443Z,1.30
2023-01-21T17:42:17.017Z,1.40
2023-01-21T17:44:48.773Z,1.30
2023-01-21T17:47:27.750Z,1.20
2023-01-21T17:50:08.339Z,1.20
2023-01-21T17:52:35.298Z,1.20
2023-01-21T17:55:25.722Z,1.20
2023-01-21T17:57:52.591Z,1.20
2023-01-21T18:00:40.937Z,1.10
2023-01-21T18:03:07.713Z,1.20
2023-01-21T18:05:37.516Z,1.10
2023-01-21T18:08:13.225Z,1.10
2023-01-21T18:10:40.788Z,1.00
2023-01-21T18:13:11.579Z,1.00
2023-01-21T18:15:48.190Z,0.90
2023-01-21T18:18:25.135Z,0.90
2023-01-21T18:20:52.232Z,0.80
2023-01-21T18:23:19.715Z,0.80
2023-01-21T18:25:48.805Z,0.80
2023-01-21T18:28:21.395Z,0.80
2023-01-21T18:30:50.029Z,0.80
2023-01-21T18:33:17.059Z,0.80
2023-01-21T18:35:45.622Z,0.80
2023-01-21T18:38:27.706Z,0.80
2023-01-21T18:40:55.820Z,0.80
2023-01-21T18:43:26.284Z,0.80
2023-01-21T18:45:54.605Z,0.70
2023-01-21T18:48:27.590Z,0.70
2023-01-21T18:50:54.915Z,0.60
2023-01-21T18:53:25.379Z,0.70
2023-01-21T18:55:53.849Z,0.60
2023-01-21T18:58:20.692Z,0.60
2023-01-21T19:00:48.972Z,0.60
2023-01-21T19:03:16.588Z,0.60
2023-01-21T19:05:47.505Z,0.60
2023-01-21T19:08:21.731Z,0.60
2023-01-21T19:10:50.521Z,0.50
2023-01-21T19:13:17.593Z,0.50
2023-01-21T19:15:45.248Z,0.40
2023-01-21T19:18:13.981Z,0.40
2023-01-21T19:20:41.652Z,0.30
2023-01-21T19:23:16.783Z,0.30
2023-01-21T19:25:54.065Z,0.30
2023-01-21T19:28:23.436Z,0.20
2023-01-21T19:30:55.011Z,0.20
2023-01-21T19:33:25.277Z,0.30
2023-01-21T19:36:02.157Z,0.30
2023-01-21T19:38:29.222Z,0.40
2023-01-21T19:40:56.062Z,0.40
2023-01-21T19:43:23.281Z,0.40
2023-01-21T19:45:51.534Z,0.50
2023-01-21T19:48:21.511Z,0.50
2023-01-21T19:50:51.032Z,0.50
2023-01-21T19:53:21.057Z,0.50
2023-01-21T19:55:49.582Z,0.50
2023-01-21T19:58:19.897Z,0.50
2023-01-21T20:00:49.103Z,0.50
2023-01-21T20:03:17.979Z,0.60
2023-01-21T20:05:45.611Z,0.60
2023-01-21T20:08:17.190Z,0.60
2023-01-21T20:10:44.666Z,0.60
2023-01-21T20:13:13.375Z,0.60
2023-01-21T20:15:41.594Z,0.60
2023-01-21T20:18:18.280Z,0.60
2023-01-21T20:20:44.966Z,0.60
2023-01-21T20:23:16.402Z,0.60
2023-01-21T20:25:44.524Z,0.60
2023-01-21T20:28:25.339Z,0.70
2023-01-21T20:30:54.098Z,0.70
2023-01-21T20:33:23.161Z,0.70
2023-01-21T20:35:53.360Z,0.70
2023-01-21T20:38:30.902Z,0.70
2023-01-21T20:40:59.568Z,0.70
2023-01-21T20:43:27.579Z,0.60
2023-01-21T20:45:59.270Z,0.60
2023-01-21T20:48:29.077Z,0.50
2023-01-21T20:50:55.854Z,0.50
2023-01-21T20:53:22.619Z,0.50
2023-01-21T20:55:51.103Z,0.50
2023-01-21T20:58:21.775Z,0.50
2023-01-21T21:00:49.212Z,0.50
2023-01-21T21:03:18.103Z,0.40
2023-01-21T21:05:46.264Z,0.40
2023-01-21T21:08:18.346Z,0.40
2023-01-21T21:10:45.661Z,0.50
2023-01-21T21:13:15.078Z,0.50
2023-01-21T21:15:42.533Z,0.50
2023-01-21T21:18:13.497Z,0.60
2023-01-21T21:20:40.759Z,0.50
2023-01-21T21:23:09.831Z,0.60
2023-01-21T21:25:45.185Z,0.60
2023-01-21T21:28:17.495Z,0.80
2023-01-21T21:30:46.670Z,0.50
2023-01-21T21:33:21.725Z,0.50
2023-01-21T21:35:49.981Z,0.50
2023-01-21T21:38:23.288Z,0.50
2023-01-21T21:40:52.971Z,0.60
2023-01-21T21:43:33.096Z,0.50
2023-01-21T21:46:28.615Z,0.50
2023-01-21T21:48:55.441Z,0.50
2023-01-21T21:51:22.667Z,0.60
2023-01-21T21:53:50.328Z,0.60
2023-01-21T21:56:18.723Z,0.60
2023-01-21T21:58:45.759Z,0.60
2023-01-21T22:01:15.832Z,0.60
2023-01-21T22:03:42.765Z,0.60
2023-01-21T22:06:10.483Z,0.70
2023-01-21T22:09:05.751Z,0.70
2023-01-21T22:11:35.706Z,0.70
2023-01-21T22:14:04.719Z,0.70
2023-01-21T22:16:32.905Z,1.00
2023-01-21T22:19:03.437Z,0.70
2023-01-21T22:21:33.495Z,0.70
2023-01-21T22:24:01.834Z,0.70
2023-01-21T22:26:32.303Z,0.70
2023-01-21T22:28:59.102Z,0.70
2023-01-21T22:31:31.187Z,0.70
2023-01-21T22:33:59.414Z,0.70
2023-01-21T22:36:29.996Z,0.70
2023-01-21T22:38:57.500Z,0.70
2023-01-21T22:41:24.833Z,0.70
2023-01-21T22:43:51.920Z,0.70
2023-01-21T22:46:24.445Z,0.60
2023-01-21T22:48:53.095Z,0.60
2023-01-21T22:51:21.360Z,0.60
2023-01-21T22:53:49.778Z,0.70
2023-01-21T22:56:19.349Z,0.70
2023-01-21T22:58:49.081Z,0.80
2023-01-21T23:01:33.538Z,0.70
2023-01-21T23:04:00.667Z,0.70
2023-01-21T23:06:28.017Z,0.60
2023-01-21T23:08:55.567Z,0.60
2023-01-21T23:11:22.347Z,0.60
2023-01-21T23:13:53.207Z,0.50
2023-01-21T23:16:24.039Z,0.50
2023-01-21T23:18:50.949Z,0.40
2023-01-21T23:21:21.864Z,0.40
2023-01-21T23:23:48.928Z,0.30
2023-01-21T23:26:16.279Z,0.30
2023-01-21T23:28:43.159Z,0.30
2023-01-21T23:31:15.411Z,0.30
2023-01-21T23:33:42.498Z,0.40
2023-01-21T23:36:13.099Z,0.30
2023-01-21T23:38:41.153Z,0.30
2023-01-21T23:41:09.833Z,0.40
2023-01-21T23:43:36.977Z,0.30
2023-01-21T23:46:08.554Z,0.30
2023-01-21T23:48:35.565Z,0.30
2023-01-21T23:51:07.868Z,0.30
2023-01-21T23:53:34.742Z,0.40
2023-01-21T23:56:10.602Z,0.40
2023-01-21T23:58:37.429Z,0.40
